sensor_id;sensor_type;location;lat;lon;timestamp;pressure;altitude;pressure_sealevel;temperature;humidity
50859;BME280;36826;47.514;19.056;2023-02-19T00:01:05;100163.19;;;22.33;37.09
50859;BME280;36826;47.514;19.056;2023-02-19T00:03:31;100147.47;;;22.15;36.97
50859;BME280;36826;47.514;19.056;2023-02-19T00:05:58;100167.44;;;21.82;37.73
50859;BME280;36826;47.514;19.056;2023-02-19T00:08:25;100158.16;;;22.30;37.03
50859;BME280;36826;47.514;19.056;2023-02-19T00:10:50;100162.78;;;22.22;36.80
50859;BME280;36826;47.514;19.056;2023-02-19T00:13:15;100159.91;;;22.70;36.41
50859;BME280;36826;47.514;19.056;2023-02-19T00:15:41;100163.47;;;22.77;36.40
50859;BME280;36826;47.514;19.056;2023-02-19T00:18:06;100155.19;;;22.45;37.09
50859;BME280;36826;47.514;19.056;2023-02-19T00:20:31;100155.88;;;22.20;37.31
50859;BME280;36826;47.514;19.056;2023-02-19T00:22:57;100156.47;;;22.35;36.89
50859;BME280;36826;47.514;19.056;2023-02-19T00:25:22;100151.84;;;22.29;37.06
50859;BME280;36826;47.514;19.056;2023-02-19T00:27:47;100150.88;;;21.76;37.61
50859;BME280;36826;47.514;19.056;2023-02-19T00:30:13;100156.34;;;21.63;38.03
50859;BME280;36826;47.514;19.056;2023-02-19T00:32:38;100155.06;;;22.13;37.20
50859;BME280;36826;47.514;19.056;2023-02-19T00:35:03;100151.28;;;22.07;37.04
50859;BME280;36826;47.514;19.056;2023-02-19T00:37:29;100145.31;;;22.44;36.82
50859;BME280;36826;47.514;19.056;2023-02-19T00:39:54;100146.25;;;22.11;37.01
50859;BME280;36826;47.514;19.056;2023-02-19T00:42:19;100144.75;;;22.01;37.26
50859;BME280;36826;47.514;19.056;2023-02-19T00:44:45;100148.94;;;22.24;36.65
50859;BME280;36826;47.514;19.056;2023-02-19T00:47:10;100143.53;;;21.43;37.81
50859;BME280;36826;47.514;19.056;2023-02-19T00:49:35;100136.31;;;22.36;36.67
50859;BME280;36826;47.514;19.056;2023-02-19T00:52:02;100137.03;;;21.98;37.14
50859;BME280;36826;47.514;19.056;2023-02-19T00:54:27;100145.19;;;22.12;36.84
50859;BME280;36826;47.514;19.056;2023-02-19T00:56:53;100151.31;;;21.87;37.35
50859;BME280;36826;47.514;19.056;2023-02-19T00:59:18;100150.44;;;22.72;35.87
50859;BME280;36826;47.514;19.056;2023-02-19T01:01:43;100148.25;;;23.58;34.98
50859;BME280;36826;47.514;19.056;2023-02-19T01:04:09;100147.00;;;22.97;35.47
50859;BME280;36826;47.514;19.056;2023-02-19T01:06:35;100159.34;;;22.41;36.40
50859;BME280;36826;47.514;19.056;2023-02-19T01:09:02;100147.22;;;22.50;36.18
50859;BME280;36826;47.514;19.056;2023-02-19T01:11:27;100144.44;;;22.63;36.32
50859;BME280;36826;47.514;19.056;2023-02-19T01:13:56;100144.59;;;22.68;36.19
50859;BME280;36826;47.514;19.056;2023-02-19T01:16:22;100140.09;;;22.42;36.79
50859;BME280;36826;47.514;19.056;2023-02-19T01:18:48;100143.91;;;22.80;36.08
50859;BME280;36826;47.514;19.056;2023-02-19T01:21:15;100137.59;;;22.86;35.92
50859;BME280;36826;47.514;19.056;2023-02-19T01:23:41;100147.84;;;22.38;36.46
50859;BME280;36826;47.514;19.056;2023-02-19T01:26:08;100131.03;;;22.94;35.86
50859;BME280;36826;47.514;19.056;2023-02-19T01:28:33;100137.56;;;22.27;36.62
50859;BME280;36826;47.514;19.056;2023-02-19T01:31:00;100136.31;;;22.36;36.67
50859;BME280;36826;47.514;19.056;2023-02-19T01:33:25;100138.22;;;22.88;35.79
50859;BME280;36826;47.514;19.056;2023-02-19T01:35:51;100110.53;;;22.78;35.91
50859;BME280;36826;47.514;19.056;2023-02-19T01:38:16;100136.00;;;22.65;36.34
50859;BME280;36826;47.514;19.056;2023-02-19T01:40:42;100148.63;;;22.98;35.90
50859;BME280;36826;47.514;19.056;2023-02-19T01:43:13;100150.06;;;23.07;35.61
50859;BME280;36826;47.514;19.056;2023-02-19T01:45:42;100143.81;;;23.39;35.20
50859;BME280;36826;47.514;19.056;2023-02-19T01:48:09;100139.25;;;23.26;35.25
50859;BME280;36826;47.514;19.056;2023-02-19T01:50:38;100139.59;;;23.04;35.45
50859;BME280;36826;47.514;19.056;2023-02-19T01:53:05;100125.81;;;23.24;35.37
50859;BME280;36826;47.514;19.056;2023-02-19T01:55:32;100137.56;;;22.93;35.82
50859;BME280;36826;47.514;19.056;2023-02-19T01:58:00;100151.41;;;22.32;36.40
50859;BME280;36826;47.514;19.056;2023-02-19T02:00:25;100137.53;;;22.47;36.75
50859;BME280;36826;47.514;19.056;2023-02-19T02:02:51;100126.09;;;22.71;36.36
50859;BME280;36826;47.514;19.056;2023-02-19T02:08:04;100124.44;;;21.43;38.44
50859;BME280;36826;47.514;19.056;2023-02-19T02:10:48;100114.91;;;22.33;37.01
50859;BME280;36826;47.514;19.056;2023-02-19T02:13:14;100120.41;;;22.20;37.31
50859;BME280;36826;47.514;19.056;2023-02-19T02:15:49;100127.38;;;21.89;37.91
50859;BME280;36826;47.514;19.056;2023-02-19T02:18:19;100130.50;;;22.19;37.44
50859;BME280;36826;47.514;19.056;2023-02-19T02:20:54;100115.75;;;22.20;37.54
50859;BME280;36826;47.514;19.056;2023-02-19T02:23:34;100086.56;;;22.34;37.41
50859;BME280;36826;47.514;19.056;2023-02-19T02:26:41;100107.88;;;21.25;38.63
50859;BME280;36826;47.514;19.056;2023-02-19T02:31:40;100110.19;;;21.95;37.74
50859;BME280;36826;47.514;19.056;2023-02-19T02:34:10;100098.16;;;22.23;37.72
50859;BME280;36826;47.514;19.056;2023-02-19T02:36:37;100105.34;;;22.04;37.89
50859;BME280;36826;47.514;19.056;2023-02-19T02:39:08;100097.41;;;21.75;38.16
50859;BME280;36826;47.514;19.056;2023-02-19T02:41:39;100100.34;;;21.87;38.28
50859;BME280;36826;47.514;19.056;2023-02-19T02:44:06;100113.09;;;22.14;37.64
50859;BME280;36826;47.514;19.056;2023-02-19T02:46:33;100114.59;;;21.56;38.47
50859;BME280;36826;47.514;19.056;2023-02-19T02:49:03;100108.09;;;21.50;38.35
50859;BME280;36826;47.514;19.056;2023-02-19T02:51:31;100113.09;;;22.14;37.56
50859;BME280;36826;47.514;19.056;2023-02-19T02:53:58;100111.03;;;22.61;37.09
50859;BME280;36826;47.514;19.056;2023-02-19T02:56:45;100115.38;;;22.76;36.87
50859;BME280;36826;47.514;19.056;2023-02-19T02:59:12;100121.00;;;22.81;36.86
50859;BME280;36826;47.514;19.056;2023-02-19T03:07:23;100132.84;;;22.68;37.35
50859;BME280;36826;47.514;19.056;2023-02-19T03:09:48;100135.41;;;22.56;37.62
50859;BME280;36826;47.514;19.056;2023-02-19T03:12:14;100129.47;;;22.73;37.04
50859;BME280;36826;47.514;19.056;2023-02-19T03:15:01;100127.84;;;23.04;36.63
50859;BME280;36826;47.514;19.056;2023-02-19T03:17:50;100131.06;;;22.42;37.76
50859;BME280;36826;47.514;19.056;2023-02-19T03:20:35;100127.50;;;23.25;36.42
50859;BME280;36826;47.514;19.056;2023-02-19T03:23:03;100124.91;;;22.53;37.02
50859;BME280;36826;47.514;19.056;2023-02-19T03:25:30;100133.34;;;22.45;37.25
50859;BME280;36826;47.514;19.056;2023-02-19T03:28:16;100136.28;;;22.95;36.74
50859;BME280;36826;47.514;19.056;2023-02-19T03:31:05;100138.50;;;23.12;36.70
50859;BME280;36826;47.514;19.056;2023-02-19T03:33:33;100135.25;;;23.28;36.10
50859;BME280;36826;47.514;19.056;2023-02-19T03:35:59;100134.31;;;23.09;36.31
50859;BME280;36826;47.514;19.056;2023-02-19T03:38:36;100131.53;;;23.73;35.52
50859;BME280;36826;47.514;19.056;2023-02-19T03:46:24;100136.38;;;23.71;35.32
50859;BME280;36826;47.514;19.056;2023-02-19T03:48:59;100152.94;;;23.77;35.29
50859;BME280;36826;47.514;19.056;2023-02-19T03:56:44;100139.19;;;23.83;35.28
50859;BME280;36826;47.514;19.056;2023-02-19T03:59:19;100130.78;;;23.85;35.15
50859;BME280;36826;47.514;19.056;2023-02-19T04:01:49;100130.66;;;23.54;35.59
50859;BME280;36826;47.514;19.056;2023-02-19T04:06:54;100121.59;;;23.79;35.39
50859;BME280;36826;47.514;19.056;2023-02-19T04:09:21;100130.84;;;23.27;36.11
50859;BME280;36826;47.514;19.056;2023-02-19T04:11:49;100130.84;;;23.53;35.84
50859;BME280;36826;47.514;19.056;2023-02-19T04:14:16;100130.59;;;23.61;35.63
50859;BME280;36826;47.514;19.056;2023-02-19T04:16:44;100133.84;;;23.70;35.38
50859;BME280;36826;47.514;19.056;2023-02-19T04:19:12;100139.97;;;22.76;36.44
50859;BME280;36826;47.514;19.056;2023-02-19T04:21:39;100138.06;;;23.15;35.83
50859;BME280;36826;47.514;19.056;2023-02-19T04:24:11;100136.81;;;23.11;36.00
50859;BME280;36826;47.514;19.056;2023-02-19T04:26:38;100142.22;;;22.79;36.60
50859;BME280;36826;47.514;19.056;2023-02-19T04:29:04;100141.81;;;22.82;36.65
50859;BME280;36826;47.514;19.056;2023-02-19T04:31:29;100140.63;;;23.03;36.23
50859;BME280;36826;47.514;19.056;2023-02-19T04:33:55;100145.16;;;22.25;37.07
50859;BME280;36826;47.514;19.056;2023-02-19T04:36:20;100141.81;;;22.82;36.55
50859;BME280;36826;47.514;19.056;2023-02-19T04:38:46;100131.56;;;22.71;36.63
50859;BME280;36826;47.514;19.056;2023-02-19T04:41:11;100139.28;;;22.15;37.46
50859;BME280;36826;47.514;19.056;2023-02-19T04:43:36;100150.59;;;22.91;36.43
50859;BME280;36826;47.514;19.056;2023-02-19T04:46:02;100139.25;;;22.28;36.92
50859;BME280;36826;47.514;19.056;2023-02-19T04:48:27;100132.44;;;22.71;36.68
50859;BME280;36826;47.514;19.056;2023-02-19T04:50:53;100143.03;;;22.27;37.16
50859;BME280;36826;47.514;19.056;2023-02-19T04:53:18;100138.41;;;22.48;36.62
50859;BME280;36826;47.514;19.056;2023-02-19T04:55:44;100143.69;;;22.88;36.48
50859;BME280;36826;47.514;19.056;2023-02-19T04:58:09;100134.69;;;22.09;37.47
50859;BME280;36826;47.514;19.056;2023-02-19T05:00:34;100132.19;;;22.14;37.48
50859;BME280;36826;47.514;19.056;2023-02-19T05:03:00;100126.25;;;22.30;37.11
50859;BME280;36826;47.514;19.056;2023-02-19T05:05:25;100121.09;;;22.61;36.95
50859;BME280;36826;47.514;19.056;2023-02-19T05:07:50;100118.78;;;23.03;36.24
50859;BME280;36826;47.514;19.056;2023-02-19T05:10:16;100118.19;;;22.62;36.88
50859;BME280;36826;47.514;19.056;2023-02-19T05:12:41;100128.78;;;22.84;36.36
50859;BME280;36826;47.514;19.056;2023-02-19T05:15:06;100126.22;;;22.89;36.25
50859;BME280;36826;47.514;19.056;2023-02-19T05:17:32;100126.84;;;22.91;36.35
50859;BME280;36826;47.514;19.056;2023-02-19T05:19:58;100129.94;;;23.02;36.18
50859;BME280;36826;47.514;19.056;2023-02-19T05:22:23;100132.84;;;22.68;36.69
50859;BME280;36826;47.514;19.056;2023-02-19T05:24:49;100132.31;;;22.91;36.47
50859;BME280;36826;47.514;19.056;2023-02-19T17:34:43;100183.22;;;11.70;100.00
50859;BME280;36826;47.514;19.056;2023-02-19T17:37:08;100189.19;;;11.44;100.00
50859;BME280;36826;47.514;19.056;2023-02-19T17:39:34;100188.38;;;12.20;99.95
50859;BME280;36826;47.514;19.056;2023-02-19T17:41:59;100205.41;;;12.49;94.57
50859;BME280;36826;47.514;19.056;2023-02-19T17:44:25;100211.78;;;12.76;90.41
50859;BME280;36826;47.514;19.056;2023-02-19T17:46:50;100214.09;;;12.88;88.14
50859;BME280;36826;47.514;19.056;2023-02-19T17:49:16;100211.88;;;12.46;87.52
50859;BME280;36826;47.514;19.056;2023-02-19T17:51:41;100206.78;;;12.15;89.91
50859;BME280;36826;47.514;19.056;2023-02-19T17:54:07;100211.72;;;12.10;89.14
50859;BME280;36826;47.514;19.056;2023-02-19T17:56:33;100218.81;;;11.72;93.71
50859;BME280;36826;47.514;19.056;2023-02-19T17:58:58;100220.72;;;12.38;91.52
50859;BME280;36826;47.514;19.056;2023-02-19T18:01:24;100221.38;;;12.03;92.24
50859;BME280;36826;47.514;19.056;2023-02-19T18:03:50;100218.81;;;11.91;92.40
50859;BME280;36826;47.514;19.056;2023-02-19T18:06:15;100228.97;;;11.97;92.26
50859;BME280;36826;47.514;19.056;2023-02-19T18:09:13;100237.00;;;12.65;89.33
50859;BME280;36826;47.514;19.056;2023-02-19T18:11:48;100251.78;;;13.07;84.08
50859;BME280;36826;47.514;19.056;2023-02-19T18:14:14;100253.41;;;13.17;82.34
50859;BME280;36826;47.514;19.056;2023-02-19T18:16:50;100255.13;;;13.18;81.29
50859;BME280;36826;47.514;19.056;2023-02-19T18:19:41;100250.50;;;12.83;82.80
50859;BME280;36826;47.514;19.056;2023-02-19T18:22:10;100265.47;;;13.13;81.64
50859;BME280;36826;47.514;19.056;2023-02-19T18:27:59;100282.19;;;13.35;80.37
50859;BME280;36826;47.514;19.056;2023-02-19T18:30:24;100294.75;;;13.16;80.35
50859;BME280;36826;47.514;19.056;2023-02-19T18:32:52;100290.69;;;13.30;79.20
50859;BME280;36826;47.514;19.056;2023-02-19T18:35:19;100304.53;;;13.17;79.70
50859;BME280;36826;47.514;19.056;2023-02-19T18:37:49;100306.13;;;13.10;79.64
50859;BME280;36826;47.514;19.056;2023-02-19T18:40:25;100315.38;;;12.60;80.91
50859;BME280;36826;47.514;19.056;2023-02-19T18:57:11;100367.19;;;13.28;78.30
50859;BME280;36826;47.514;19.056;2023-02-19T19:03:06;100374.38;;;12.99;80.94
50859;BME280;36826;47.514;19.056;2023-02-19T19:17:20;100380.84;;;13.72;77.15
50859;BME280;36826;47.514;19.056;2023-02-19T19:26:57;100379.25;;;12.86;80.77
50859;BME280;36826;47.514;19.056;2023-02-19T19:36:36;100373.31;;;12.82;80.71
50859;BME280;36826;47.514;19.056;2023-02-19T19:40:00;100369.59;;;12.26;82.81
50859;BME280;36826;47.514;19.056;2023-02-19T19:45:59;100390.38;;;12.14;83.62
50859;BME280;36826;47.514;19.056;2023-02-19T19:52:02;100386.94;;;12.61;82.53
50859;BME280;36826;47.514;19.056;2023-02-19T19:55:05;100388.28;;;12.85;81.18
50859;BME280;36826;47.514;19.056;2023-02-19T19:58:08;100398.59;;;12.89;79.97
50859;BME280;36826;47.514;19.056;2023-02-19T20:07:34;100426.81;;;12.17;80.81
50859;BME280;36826;47.514;19.056;2023-02-19T20:10:07;100415.25;;;12.16;79.45
50859;BME280;36826;47.514;19.056;2023-02-19T20:12:58;100435.88;;;12.65;77.46
50859;BME280;36826;47.514;19.056;2023-02-19T20:34:39;100499.94;;;12.79;74.69
50859;BME280;36826;47.514;19.056;2023-02-19T20:37:06;100520.34;;;13.39;70.96
50859;BME280;36826;47.514;19.056;2023-02-19T20:39:33;100523.84;;;11.61;78.10
50859;BME280;36826;47.514;19.056;2023-02-19T20:42:01;100522.66;;;11.85;78.37
50859;BME280;36826;47.514;19.056;2023-02-19T20:44:27;100535.59;;;11.39;80.17
50859;BME280;36826;47.514;19.056;2023-02-19T20:46:55;100539.44;;;11.68;79.41
50859;BME280;36826;47.514;19.056;2023-02-19T20:49:23;100545.84;;;10.70;81.23
50859;BME280;36826;47.514;19.056;2023-02-19T20:51:51;100554.91;;;11.12;79.86
50859;BME280;36826;47.514;19.056;2023-02-19T20:54:21;100551.91;;;11.26;78.36
50859;BME280;36826;47.514;19.056;2023-02-19T20:56:50;100566.50;;;11.64;76.91
50859;BME280;36826;47.514;19.056;2023-02-19T20:59:22;100564.38;;;11.37;75.58
50859;BME280;36826;47.514;19.056;2023-02-19T21:01:54;100565.38;;;11.15;75.71
50859;BME280;36826;47.514;19.056;2023-02-19T21:04:19;100565.72;;;11.22;74.86
50859;BME280;36826;47.514;19.056;2023-02-19T21:06:45;100575.97;;;11.38;73.61
50859;BME280;36826;47.514;19.056;2023-02-19T21:09:20;100555.28;;;10.86;74.31
50859;BME280;36826;47.514;19.056;2023-02-19T21:11:49;100568.81;;;11.05;74.13
50859;BME280;36826;47.514;19.056;2023-02-19T21:14:15;100583.47;;;11.44;72.92
50859;BME280;36826;47.514;19.056;2023-02-19T21:16:41;100575.81;;;10.97;74.15
50859;BME280;36826;47.514;19.056;2023-02-19T21:19:07;100571.38;;;10.42;75.98
50859;BME280;36826;47.514;19.056;2023-02-19T21:21:33;100575.38;;;10.36;77.10
50859;BME280;36826;47.514;19.056;2023-02-19T21:24:00;100582.09;;;10.31;77.49
50859;BME280;36826;47.514;19.056;2023-02-19T21:26:37;100580.38;;;10.29;77.93
50859;BME280;36826;47.514;19.056;2023-02-19T21:29:03;100586.47;;;9.97;77.93
50859;BME280;36826;47.514;19.056;2023-02-19T21:34:03;100584.69;;;9.98;77.31
50859;BME280;36826;47.514;19.056;2023-02-19T21:36:29;100594.03;;;9.92;77.84
50859;BME280;36826;47.514;19.056;2023-02-19T21:38:55;100594.75;;;9.83;77.54
50859;BME280;36826;47.514;19.056;2023-02-19T21:41:20;100596.44;;;9.84;77.20
50859;BME280;36826;47.514;19.056;2023-02-19T21:43:45;100593.31;;;9.79;76.44
50859;BME280;36826;47.514;19.056;2023-02-19T21:46:16;100594.38;;;9.65;75.22
50859;BME280;36826;47.514;19.056;2023-02-19T21:48:42;100587.59;;;9.72;74.52
50859;BME280;36826;47.514;19.056;2023-02-19T21:51:08;100598.25;;;11.17;66.88
50859;BME280;36826;47.514;19.056;2023-02-19T21:53:33;100598.38;;;9.59;69.68
50859;BME280;36826;47.514;19.056;2023-02-19T21:55:59;100597.25;;;9.39;69.73
50859;BME280;36826;47.514;19.056;2023-02-19T21:58:25;100595.44;;;9.04;68.97
50859;BME280;36826;47.514;19.056;2023-02-19T22:00:50;100595.84;;;8.86;68.09
50859;BME280;36826;47.514;19.056;2023-02-19T22:03:17;100575.56;;;8.59;67.37
50859;BME280;36826;47.514;19.056;2023-02-19T22:05:43;100596.81;;;8.85;67.07
50859;BME280;36826;47.514;19.056;2023-02-19T22:08:08;100597.13;;;8.94;65.96
50859;BME280;36826;47.514;19.056;2023-02-19T22:10:34;100612.44;;;8.79;64.65
50859;BME280;36826;47.514;19.056;2023-02-19T22:13:00;100596.16;;;8.95;64.28
50859;BME280;36826;47.514;19.056;2023-02-19T22:15:25;100590.19;;;8.67;63.43
50859;BME280;36826;47.514;19.056;2023-02-19T22:17:55;100593.59;;;8.69;62.81
50859;BME280;36826;47.514;19.056;2023-02-19T22:20:20;100593.47;;;8.95;60.97
50859;BME280;36826;47.514;19.056;2023-02-19T22:22:46;100611.66;;;8.89;60.42
50859;BME280;36826;47.514;19.056;2023-02-19T22:25:11;100602.84;;;8.76;60.59
50859;BME280;36826;47.514;19.056;2023-02-19T22:27:37;100608.72;;;8.81;59.81
50859;BME280;36826;47.514;19.056;2023-02-19T22:30:03;100603.81;;;8.75;59.75
50859;BME280;36826;47.514;19.056;2023-02-19T22:32:29;100606.03;;;8.57;60.14
50859;BME280;36826;47.514;19.056;2023-02-19T22:34:55;100607.75;;;8.45;59.89
50859;BME280;36826;47.514;19.056;2023-02-19T22:37:20;100610.28;;;8.59;59.28
50859;BME280;36826;47.514;19.056;2023-02-19T22:39:46;100617.59;;;8.57;59.12
50859;BME280;36826;47.514;19.056;2023-02-19T22:42:11;100623.94;;;8.31;59.05
50859;BME280;36826;47.514;19.056;2023-02-19T22:44:37;100631.84;;;8.69;58.42
50859;BME280;36826;47.514;19.056;2023-02-19T22:47:02;100630.63;;;8.49;58.27
50859;BME280;36826;47.514;19.056;2023-02-19T22:49:28;100633.19;;;8.38;57.86
50859;BME280;36826;47.514;19.056;2023-02-19T22:52:05;100633.88;;;8.66;56.96
50859;BME280;36826;47.514;19.056;2023-02-19T22:54:35;100638.47;;;8.64;57.01
50859;BME280;36826;47.514;19.056;2023-02-19T22:57:01;100644.41;;;8.80;57.10
50859;BME280;36826;47.514;19.056;2023-02-19T22:59:26;100656.03;;;8.42;57.19
50859;BME280;36826;47.514;19.056;2023-02-19T23:01:52;100662.38;;;8.78;57.17
50859;BME280;36826;47.514;19.056;2023-02-19T23:04:22;100662.03;;;8.20;57.71
50859;BME280;36826;47.514;19.056;2023-02-19T23:06:48;100668.41;;;8.43;56.94
50859;BME280;36826;47.514;19.056;2023-02-19T23:09:23;100676.97;;;8.35;57.61
50859;BME280;36826;47.514;19.056;2023-02-19T23:11:49;100682.97;;;8.13;58.79
50859;BME280;36826;47.514;19.056;2023-02-19T23:14:17;100695.66;;;8.48;57.76
50859;BME280;36826;47.514;19.056;2023-02-19T23:16:43;100691.38;;;8.45;58.16
50859;BME280;36826;47.514;19.056;2023-02-19T23:19:09;100694.91;;;8.20;58.68
50859;BME280;36826;47.514;19.056;2023-02-19T23:21:39;100691.50;;;7.79;58.81
50859;BME280;36826;47.514;19.056;2023-02-19T23:24:05;100687.31;;;7.75;58.68
50859;BME280;36826;47.514;19.056;2023-02-19T23:26:31;100695.22;;;7.51;58.49
50859;BME280;36826;47.514;19.056;2023-02-19T23:28:57;100718.19;;;7.92;58.02
50859;BME280;36826;47.514;19.056;2023-02-19T23:31:22;100723.94;;;8.38;57.13
50859;BME280;36826;47.514;19.056;2023-02-19T23:33:48;100716.06;;;8.23;56.76
50859;BME280;36826;47.514;19.056;2023-02-19T23:36:14;100707.53;;;7.92;57.26
50859;BME280;36826;47.514;19.056;2023-02-19T23:38:45;100714.16;;;7.87;57.12
50859;BME280;36826;47.514;19.056;2023-02-19T23:41:12;100733.69;;;8.00;57.52
50859;BME280;36826;47.514;19.056;2023-02-19T23:43:38;100725.75;;;7.98;57.05
50859;BME280;36826;47.514;19.056;2023-02-19T23:46:04;100739.91;;;7.60;56.54
50859;BME280;36826;47.514;19.056;2023-02-19T23:48:33;100745.31;;;7.99;56.73
50859;BME280;36826;47.514;19.056;2023-02-19T23:50:59;100732.94;;;7.98;56.32
50859;BME280;36826;47.514;19.056;2023-02-19T23:53:24;100751.63;;;8.24;55.43
50859;BME280;36826;47.514;19.056;2023-02-19T23:55:50;100765.25;;;8.06;55.23
50859;BME280;36826;47.514;19.056;2023-02-19T23:58:16;100763.75;;;7.89;55.73
